Albany, New Hampshire
Current Conditions -  °F | °C
As of 7:54 PM on Saturday 20 Dec 2014 (Local Time) from KIZG Reporting Station
Clear Clear  
Wind Chill: -9°   Ceiling: Unl
Heat Index: -9°   Visibility: 10mi
Dew Point: -11°   Wind: 0mph
Humidity: 88%   Direction: NA
Pressure: 30.33"   Gusts: NA
Location:  43.9735°N, 71.2576°W
Report Text: KIZG 210054Z AUTO 00000KT 10SM CLR M09/M11 A3033 RMK AO2 SLP282 I1000 T10941111
Loading
Personal Weather Stations






























Interactive Weather Map New forecast layout! Learn more

10-Day Weather Forecast

Advertisements
Track Severe Weather on mobile